Time;durP1;ratioP1;P1;durP2;ratioP2;P2;SDS_P1;SDS_P2;PMS_P1;PMS_P2;Temp;Humidity;BMP_temperature;BMP_pressure;BME280_temperature;BME280_humidity;BME280_pressure;Samples;Min_cycle;Max_cycle;Signal;HPM_P1;HPM_P2
2022/02/12 00:00:22;;;;;;;4.80;1.80;;;;;;;2.21;64.27;99140.72;5065331;28;20021;-59
2022/02/12 00:02:49;;;;;;;4.00;1.80;;;;;;;2.22;64.65;99127.13;5065348;28;20046;-60
2022/02/12 00:05:16;;;;;;;5.20;1.50;;;;;;;2.17;64.16;99123.69;5065408;28;20033;-59
2022/02/12 00:07:42;;;;;;;3.88;1.40;;;;;;;2.17;63.46;99135.63;5065197;28;20306;-59
2022/02/12 00:10:08;;;;;;;3.83;1.48;;;;;;;2.10;64.42;99134.72;5065477;28;20043;-59
2022/02/12 00:12:33;;;;;;;3.13;1.45;;;;;;;2.26;64.37;99138.19;5065448;28;20037;-60
2022/02/12 00:14:59;;;;;;;4.00;1.65;;;;;;;2.20;63.79;99133.91;5065256;28;20036;-59
2022/02/12 00:17:25;;;;;;;2.25;1.27;;;;;;;2.17;64.29;99135.63;5065396;28;20302;-59
2022/02/12 00:19:51;;;;;;;3.35;1.50;;;;;;;2.24;63.97;99127.97;5065274;28;20028;-59
2022/02/12 00:22:17;;;;;;;1.90;1.27;;;;;;;2.21;63.64;99134.78;5065153;28;20044;-59
2022/02/12 00:24:42;;;;;;;4.55;1.55;;;;;;;2.27;64.04;99129.69;5065106;28;20048;-59
2022/02/12 00:27:09;;;;;;;4.82;1.40;;;;;;;2.33;64.20;99124.59;5065137;28;20214;-59
2022/02/12 00:29:35;;;;;;;2.45;1.08;;;;;;;2.29;63.71;99132.25;5065194;28;20016;-59
2022/02/12 00:32:00;;;;;;;3.38;1.20;;;;;;;2.26;64.37;99138.19;5065083;28;20013;-59
2022/02/12 00:34:26;;;;;;;2.08;1.42;;;;;;;2.23;64.14;99128.81;5065056;28;20064;-59
2022/02/12 00:36:52;;;;;;;4.80;1.65;;;;;;;2.20;64.93;99133.06;5063899;28;20302;-60
2022/02/12 00:39:17;;;;;;;3.40;1.55;;;;;;;2.28;65.38;99130.53;5063726;28;20028;-60
2022/02/12 00:41:43;;;;;;;4.20;1.50;;;;;;;2.34;64.73;99139.06;5064777;28;20029;-60
2022/02/12 00:44:09;;;;;;;5.15;1.42;;;;;;;2.33;64.40;99129.69;5063718;28;20028;-60
2022/02/12 00:46:34;;;;;;;6.18;1.73;;;;;;;2.33;64.81;99136.50;5064814;28;20067;-60
2022/02/12 00:49:00;;;;;;;3.65;1.42;;;;;;;2.27;64.61;99141.59;5064346;28;20088;-59
2022/02/12 00:51:25;;;;;;;4.28;1.33;;;;;;;2.34;65.38;99138.22;5064348;28;20325;-59
2022/02/12 00:53:52;;;;;;;5.72;1.60;;;;;;;2.32;63.90;99140.75;5064181;28;20028;-60
2022/02/12 00:56:17;;;;;;;4.35;1.50;;;;;;;2.15;64.25;99135.63;5063012;28;20216;-59
2022/02/12 00:58:43;;;;;;;6.07;1.48;;;;;;;2.14;64.67;99128.78;5064510;28;20036;-60
2022/02/12 01:01:08;;;;;;;5.03;1.33;;;;;;;2.23;65.16;99136.47;5062842;28;20041;-60
2022/02/12 01:03:34;;;;;;;5.70;1.80;;;;;;;2.13;64.54;99116.84;5064110;28;20032;-60
2022/02/12 01:06:00;;;;;;;4.40;1.38;;;;;;;2.18;64.76;99127.97;5064358;28;20028;-60
2022/02/12 01:08:26;;;;;;;5.15;1.52;;;;;;;2.18;64.50;99138.19;5053987;28;20037;-60
2022/02/12 01:10:51;;;;;;;4.60;1.50;;;;;;;2.21;65.16;99138.19;5057265;28;20029;-60
2022/02/12 01:13:17;;;;;;;3.83;1.60;;;;;;;2.18;64.84;99140.72;5063985;28;20024;-60
2022/02/12 01:15:42;;;;;;;2.80;1.50;;;;;;;2.16;64.28;99144.97;5064056;28;20314;-60
2022/02/12 01:18:08;;;;;;;6.50;1.75;;;;;;;2.22;65.09;99142.44;5063971;28;20035;-60
2022/02/12 01:20:37;;;;;;;4.13;1.42;;;;;;;2.11;65.25;99141.56;5064085;28;20347;-60
2022/02/12 01:23:03;;;;;;;4.97;1.38;;;;;;;2.19;66.24;99144.97;5063676;28;20033;-61
2022/02/12 01:25:29;;;;;;;3.00;1.63;;;;;;;2.04;65.48;99137.28;5064093;28;20028;-61
2022/02/12 01:27:55;;;;;;;5.20;1.55;;;;;;;2.19;66.46;99146.69;5062744;28;20203;-60
2022/02/12 01:30:20;;;;;;;2.60;1.63;;;;;;;2.17;66.00;99148.38;5063898;28;20035;-58
2022/02/12 01:32:46;;;;;;;4.43;1.73;;;;;;;2.20;66.50;99149.25;5063782;28;20037;-59
2022/02/12 01:35:12;;;;;;;5.72;1.85;;;;;;;2.24;66.36;99145.84;5062493;28;20028;-59
2022/02/12 01:37:39;;;;;;;4.75;1.50;;;;;;;2.03;65.92;99148.31;5063941;28;20226;-59
2022/02/12 01:40:07;;;;;;;6.03;1.40;;;;;;;1.90;66.77;99109.13;5063651;28;20024;-59
2022/02/12 01:42:32;;;;;;;4.80;1.70;;;;;;;2.11;66.25;99123.69;5063494;28;20052;-59
2022/02/12 01:45:00;;;;;;;6.07;1.58;;;;;;;2.19;65.19;99154.34;5063599;28;20036;-60
2022/02/12 01:47:27;;;;;;;2.10;1.20;;;;;;;2.18;65.10;99140.72;5063309;28;20045;-60
2022/02/12 01:49:53;;;;;;;5.28;1.88;;;;;;;2.20;65.31;99148.41;5063601;28;20039;-60
2022/02/12 01:52:18;;;;;;;3.10;1.25;;;;;;;2.11;65.48;99143.22;5062219;28;20029;-60
2022/02/12 01:54:45;;;;;;;3.03;1.45;;;;;;;2.05;66.01;99150.03;5063416;28;20087;-60
2022/02/12 01:57:11;;;;;;;3.83;1.60;;;;;;;2.10;65.68;99146.66;5057192;28;20095;-59
2022/02/12 01:59:36;;;;;;;4.88;1.40;;;;;;;1.86;65.84;99118.44;5057394;28;20017;-59
2022/02/12 02:02:02;;;;;;;2.78;1.33;;;;;;;2.09;65.33;99147.50;5063332;28;20300;-59
2022/02/12 02:04:29;;;;;;;3.33;1.60;;;;;;;2.03;65.19;99150.88;5063281;28;20078;-59
2022/02/12 02:06:54;;;;;;;4.03;1.80;;;;;;;2.07;66.13;99143.22;5063176;28;20043;-60
2022/02/12 02:09:21;;;;;;;3.17;1.40;;;;;;;2.17;66.01;99153.50;5050872;28;20025;-60
2022/02/12 02:11:47;;;;;;;3.13;1.30;;;;;;;2.19;66.13;99155.19;5063145;28;20123;-59
2022/02/12 02:14:13;;;;;;;5.53;1.50;;;;;;;2.17;66.54;99154.34;5063191;28;20395;-59
2022/02/12 02:16:41;;;;;;;3.75;1.38;;;;;;;1.84;66.75;99101.41;5063341;28;20029;-60
2022/02/12 02:19:08;;;;;;;4.70;1.50;;;;;;;2.12;66.41;99153.47;5061858;28;20021;-60
2022/02/12 02:21:39;;;;;;;4.55;2.03;;;;;;;2.22;67.16;99157.78;5062963;28;20045;-59
2022/02/12 02:24:06;;;;;;;4.07;1.40;;;;;;;2.08;66.94;99177.28;5062765;28;20028;-59
2022/02/12 02:26:33;;;;;;;3.50;1.30;;;;;;;2.10;66.60;99167.09;5063048;28;20029;-59
2022/02/12 02:28:59;;;;;;;3.05;1.75;;;;;;;2.11;67.57;99156.88;5061657;28;20025;-59
2022/02/12 02:31:25;;;;;;;3.20;1.58;;;;;;;1.78;68.09;99150.78;5062761;28;20034;-59
2022/02/12 02:33:52;;;;;;;3.88;1.77;;;;;;;1.89;69.04;99159.31;5062788;28;20055;-59
2022/02/12 02:36:17;;;;;;;3.53;1.80;;;;;;;1.89;69.21;99166.13;5062561;28;20203;-59
2022/02/12 02:38:44;;;;;;;3.67;1.42;;;;;;;1.90;69.73;99178.06;5063105;28;20012;-59
2022/02/12 02:41:10;;;;;;;4.50;1.80;;;;;;;1.75;70.47;99166.03;5063010;28;20333;-59
2022/02/12 02:43:36;;;;;;;4.88;1.90;;;;;;;1.87;71.20;99172.94;5062659;28;20092;-59
2022/02/12 02:46:03;;;;;;;5.07;1.92;;;;;;;1.83;70.80;99181.41;5062741;28;20045;-59
2022/02/12 02:48:29;;;;;;;5.22;1.67;;;;;;;1.84;71.57;99185.66;5061266;28;20032;-60
2022/02/12 02:56:23;;;;;;;2.85;1.45;;;;;;;1.83;71.89;99196.75;5062549;28;20040;-59
2022/02/12 02:58:55;;;;;;;3.78;1.60;;;;;;;1.53;72.71;99163.38;5061965;28;20309;-58
2022/02/12 03:01:23;;;;;;;3.83;1.45;;;;;;;1.45;72.80;99136.94;5066559;28;20055;-59
2022/02/12 03:03:51;;;;;;;3.60;1.48;;;;;;;1.61;72.49;99165.09;5066550;28;20210;-58
2022/02/12 03:06:18;;;;;;;2.40;1.35;;;;;;;1.91;72.04;99197.66;5066551;28;20036;-59
2022/02/12 03:08:44;;;;;;;3.63;1.60;;;;;;;1.70;72.03;99190.72;5059132;28;20024;-59
2022/02/12 03:11:11;;;;;;;3.85;1.42;;;;;;;1.67;72.69;99206.00;5066340;28;20071;-59
2022/02/12 03:13:38;;;;;;;3.67;1.40;;;;;;;1.55;73.41;99202.53;5066511;28;20029;-59
2022/02/12 03:16:04;;;;;;;6.03;1.73;;;;;;;1.60;73.70;99204.25;5065739;28;20029;-59
2022/02/12 03:18:30;;;;;;;4.28;1.90;;;;;;;1.62;73.78;99213.59;5066385;28;20036;-59
2022/02/12 03:20:56;;;;;;;4.72;1.67;;;;;;;1.69;74.41;99222.16;5066337;28;20033;-59
2022/02/12 03:23:22;;;;;;;4.65;1.88;;;;;;;1.62;74.02;99208.50;5066419;28;20120;-59
2022/02/12 03:25:47;;;;;;;5.80;1.98;;;;;;;1.63;74.54;99217.88;5066190;28;20021;-58
2022/02/12 03:28:13;;;;;;;5.70;2.15;;;;;;;1.73;74.49;99211.97;5066122;28;20025;-60
2022/02/12 03:30:41;;;;;;;4.50;2.20;;;;;;;1.33;74.33;99152.19;5066326;28;20031;-59
2022/02/12 03:33:08;;;;;;;6.43;1.92;;;;;;;1.25;76.00;99156.38;5066097;28;20071;-60
2022/02/12 03:35:35;;;;;;;2.83;1.73;;;;;;;1.70;76.78;99217.06;5065855;28;20066;-60
2022/02/12 03:38:27;;;;;;;4.15;1.80;;;;;;;1.63;76.61;99194.91;5065929;28;20032;-59
2022/02/12 03:40:58;;;;;;;3.50;1.88;;;;;;;1.75;75.68;99216.25;5066159;28;20337;-59
2022/02/12 03:43:24;;;;;;;6.25;2.03;;;;;;;1.84;76.02;99212.06;5065403;28;20221;-59
2022/02/12 03:45:50;;;;;;;4.90;1.60;;;;;;;1.70;75.29;99206.88;5066123;28;20028;-59
2022/02/12 03:48:17;;;;;;;2.33;1.77;;;;;;;1.71;75.57;99210.25;5065693;28;20056;-59
2022/02/12 03:50:42;;;;;;;4.95;1.70;;;;;;;1.59;75.91;99213.59;5065858;28;20229;-59
2022/02/12 03:53:09;;;;;;;4.22;1.98;;;;;;;1.58;76.28;99213.59;5064537;28;20033;-59
2022/02/12 03:55:39;;;;;;;2.70;1.60;;;;;;;1.62;76.80;99212.75;5065747;28;20029;-59
2022/02/12 03:58:13;;;;;;;3.95;1.60;;;;;;;1.54;76.88;99207.63;5065624;28;20083;-59
2022/02/12 04:00:40;;;;;;;3.47;1.55;;;;;;;1.59;76.73;99198.28;5065401;28;20340;-59
2022/02/12 04:03:06;;;;;;;6.78;1.50;;;;;;;1.59;77.57;99202.53;5065262;28;20037;-58
2022/02/12 04:05:33;;;;;;;4.38;1.65;;;;;;;1.75;77.05;99222.19;5065566;28;20024;-59
2022/02/12 04:07:58;;;;;;;8.15;2.00;;;;;;;1.69;77.11;99224.72;5063056;28;20025;-59
2022/02/12 04:10:25;;;;;;;5.03;1.60;;;;;;;1.69;76.38;99214.50;5065402;28;20191;-58
2022/02/12 04:12:52;;;;;;;4.25;1.80;;;;;;;1.38;76.90;99197.28;5065341;28;20033;-59
2022/02/12 04:15:18;;;;;;;5.35;2.40;;;;;;;1.60;77.20;99222.97;5065257;28;20044;-59
2022/02/12 04:17:44;;;;;;;7.80;2.55;;;;;;;1.62;77.16;99218.72;5065288;28;20074;-59
2022/02/12 04:20:13;;;;;;;6.65;2.30;;;;;;;1.58;76.75;99218.69;5063794;28;20068;-59
2022/02/12 04:22:41;;;;;;;6.78;1.92;;;;;;;1.62;77.10;99218.72;5065062;28;20027;-59
2022/02/12 04:25:09;;;;;;;5.35;2.10;;;;;;;1.52;76.42;99227.16;5064887;28;20282;-58
2022/02/12 04:27:35;;;;;;;4.22;1.60;;;;;;;1.50;76.65;99224.59;5064918;28;20036;-58
2022/02/12 04:30:01;;;;;;;8.10;1.90;;;;;;;1.50;76.40;99216.09;5064938;28;20021;-58
2022/02/12 04:32:28;;;;;;;3.75;1.83;;;;;;;1.60;76.75;99222.13;5065008;28;20037;-59
2022/02/12 04:34:54;;;;;;;5.32;1.90;;;;;;;1.55;76.81;99225.50;5072428;28;20221;-59
2022/02/12 04:37:21;;;;;;;3.17;1.73;;;;;;;1.63;76.51;99229.78;5064058;28;20026;-59
2022/02/12 04:39:47;;;;;;;3.33;1.95;;;;;;;1.67;76.14;99234.06;5064281;28;20047;-59
2022/02/12 04:42:13;;;;;;;6.22;2.22;;;;;;;1.55;76.53;99233.16;5064826;28;20286;-58
2022/02/12 04:44:40;;;;;;;5.80;2.15;;;;;;;1.67;76.56;99232.38;5064555;28;20029;-59
2022/02/12 04:47:07;;;;;;;7.00;1.90;;;;;;;1.59;76.06;99235.72;5064585;28;20033;-59
2022/02/12 04:49:34;;;;;;;4.68;2.08;;;;;;;1.65;76.13;99243.41;5064665;28;20106;-59
2022/02/12 04:51:59;;;;;;;7.18;2.42;;;;;;;1.59;75.50;99238.25;5064516;28;20226;-60
2022/02/12 04:54:25;;;;;;;4.40;1.77;;;;;;;1.64;76.09;99241.69;5064440;28;20028;-60
2022/02/12 04:56:50;;;;;;;4.47;1.90;;;;;;;1.50;75.94;99205.88;5064474;28;20079;-60
2022/02/12 04:59:17;;;;;;;5.90;1.98;;;;;;;1.77;75.08;99242.63;5063887;28;22295;-61
2022/02/12 05:01:43;;;;;;;6.95;2.30;;;;;;;1.77;74.61;99245.19;5064569;28;20040;-60
2022/02/12 05:04:08;;;;;;;4.63;2.03;;;;;;;1.76;74.68;99249.44;5063748;28;20111;-60
2022/02/12 05:06:34;;;;;;;3.90;2.17;;;;;;;1.83;74.94;99258.84;5064349;28;20025;-60
2022/02/12 05:08:59;;;;;;;4.20;2.20;;;;;;;1.72;74.62;99263.03;5063034;28;20063;-59
2022/02/12 05:11:25;;;;;;;6.97;2.25;;;;;;;1.77;74.76;99266.47;5064262;28;20039;-60
2022/02/12 05:13:50;;;;;;;9.77;2.63;;;;;;;1.82;74.65;99267.34;5064090;28;20041;-59
2022/02/12 05:16:16;;;;;;;6.00;2.42;;;;;;;1.83;75.04;99265.66;5063469;28;20058;-61
2022/02/12 05:18:41;;;;;;;4.32;2.28;;;;;;;1.78;74.91;99268.19;5063256;28;20078;-60
2022/02/12 05:21:07;;;;;;;6.00;2.25;;;;;;;1.72;74.79;99273.22;5063677;28;20055;-60
2022/02/12 05:23:32;;;;;;;5.30;2.35;;;;;;;1.83;74.67;99269.06;5063109;28;20249;-59
2022/02/12 05:25:58;;;;;;;6.63;2.60;;;;;;;1.90;74.83;99263.16;5063985;28;20025;-60
2022/02/12 05:28:24;;;;;;;5.95;2.35;;;;;;;1.78;74.32;99260.53;5063973;28;20041;-59
2022/02/12 05:30:49;;;;;;;5.78;2.45;;;;;;;1.72;74.65;99265.56;5062811;28;20021;-58
2022/02/12 05:33:15;;;;;;;6.05;2.28;;;;;;;1.78;74.42;99259.66;5063774;28;20032;-59
2022/02/12 05:35:41;;;;;;;6.32;2.25;;;;;;;1.84;73.97;99281.00;5063728;28;20046;-59
2022/02/12 05:38:07;;;;;;;3.83;1.98;;;;;;;1.75;73.08;99286.00;5059378;28;20024;-60
2022/02/12 05:40:33;;;;;;;5.57;2.45;;;;;;;1.77;73.70;99284.34;5062725;28;20028;-60
2022/02/12 05:43:00;;;;;;;5.18;2.30;;;;;;;1.80;73.47;99280.97;5062949;28;20217;-59
2022/02/12 05:45:26;;;;;;;5.68;2.35;;;;;;;1.80;73.48;99289.47;5062692;28;20028;-59
2022/02/12 05:47:51;;;;;;;4.22;1.92;;;;;;;1.80;73.60;99289.47;5062796;28;20076;-59
2022/02/12 05:50:17;;;;;;;3.72;1.88;;;;;;;1.68;73.25;99292.78;5062813;28;20044;-59
2022/02/12 05:52:43;;;;;;;3.45;1.80;;;;;;;1.61;73.56;99290.16;5062902;28;20025;-60
2022/02/12 05:55:08;;;;;;;7.57;2.65;;;;;;;1.66;73.78;99293.63;5062504;28;20025;-60
2022/02/12 05:57:34;;;;;;;4.35;1.92;;;;;;;1.54;73.59;99285.00;5062912;28;20266;-60
2022/02/12 06:00:00;;;;;;;5.30;2.55;;;;;;;1.57;73.18;99294.41;5061457;28;20036;-58
2022/02/12 06:02:25;;;;;;;5.80;2.15;;;;;;;1.66;73.33;99293.63;5062649;28;20040;-58
2022/02/12 06:04:51;;;;;;;4.15;1.80;;;;;;;1.63;73.45;99298.69;5061118;28;20313;-60
2022/02/12 06:07:16;;;;;;;5.30;2.00;;;;;;;1.71;73.78;99297.03;5060534;28;20025;-59
2022/02/12 06:09:42;;;;;;;4.72;1.88;;;;;;;1.59;73.92;99309.72;5047895;28;20021;-59
2022/02/12 06:12:08;;;;;;;4.35;1.95;;;;;;;1.67;72.82;99301.28;5062049;28;20044;-59
2022/02/12 06:14:34;;;;;;;7.63;1.85;;;;;;;1.62;73.00;99300.38;5061866;28;20055;-59
2022/02/12 06:17:00;;;;;;;4.82;2.08;;;;;;;1.64;73.49;99287.63;5059480;28;20021;-60
2022/02/12 06:19:26;;;;;;;5.15;2.03;;;;;;;1.66;72.46;99283.41;5058781;28;20044;-59
2022/02/12 06:21:53;;;;;;;3.83;1.85;;;;;;;1.76;72.43;99297.94;5061990;28;20050;-59
2022/02/12 06:24:19;;;;;;;3.72;1.83;;;;;;;1.75;72.60;99296.22;5061464;28;20049;-59
2022/02/12 06:26:48;;;;;;;6.43;2.10;;;;;;;1.80;72.20;99307.34;5061855;28;20062;-59
2022/02/12 06:29:14;;;;;;;3.78;2.50;;;;;;;1.80;72.02;99306.50;5061086;28;20025;-60
2022/02/12 06:31:40;;;;;;;5.05;2.70;;;;;;;1.83;71.03;99309.91;5061643;28;20060;-60
2022/02/12 06:34:06;;;;;;;8.15;2.58;;;;;;;1.86;72.00;99312.47;5060507;28;20037;-59
2022/02/12 06:36:32;;;;;;;3.72;2.15;;;;;;;1.84;71.68;99309.06;5060885;28;20031;-60
2022/02/12 06:38:57;;;;;;;3.75;1.80;;;;;;;1.71;70.82;99313.22;5061453;28;20049;-60
2022/02/12 06:41:23;;;;;;;4.47;1.60;;;;;;;1.77;70.92;99312.44;5061131;28;20356;-60
2022/02/12 06:43:48;;;;;;;4.53;1.80;;;;;;;1.79;71.63;99309.88;5061557;28;20032;-60
2022/02/12 06:46:14;;;;;;;5.28;1.83;;;;;;;1.77;71.20;99314.09;5062448;28;20021;-59
2022/02/12 06:48:40;;;;;;;5.15;2.10;;;;;;;1.75;71.30;99313.25;5055523;28;20025;-60
2022/02/12 06:51:06;;;;;;;6.72;2.33;;;;;;;1.97;71.11;99332.16;5059412;28;20055;-62
2022/02/12 06:53:33;;;;;;;6.53;1.88;;;;;;;1.78;72.64;99329.47;5061284;28;20036;-60
2022/02/12 06:56:02;;;;;;;4.75;1.98;;;;;;;1.74;73.83;99330.28;5061233;28;20029;-61
2022/02/12 06:58:28;;;;;;;3.67;1.95;;;;;;;1.68;75.88;99332.75;5061519;28;20309;-60
2022/02/12 07:00:53;;;;;;;5.57;2.35;;;;;;;1.70;75.09;99336.19;5059815;28;20025;-59
2022/02/12 07:03:19;;;;;;;7.93;3.58;;;;;;;1.74;74.40;99343.03;5061230;28;20055;-60
2022/02/12 07:05:45;;;;;;;4.32;2.05;;;;;;;1.90;73.95;99347.41;5061368;28;20075;-60
2022/02/12 07:08:10;;;;;;;5.38;1.80;;;;;;;1.86;74.43;99349.94;5061142;28;20025;-59
2022/02/12 07:10:36;;;;;;;4.60;2.30;;;;;;;1.74;73.15;99350.69;5061188;28;20020;-60
2022/02/12 07:13:03;;;;;;;4.35;2.30;;;;;;;1.98;72.68;99349.16;5061095;28;20032;-61
2022/02/12 07:15:29;;;;;;;5.25;2.30;;;;;;;2.01;72.05;99359.41;5061246;28;20321;-59
2022/02/12 07:17:55;;;;;;;5.65;2.00;;;;;;;2.12;71.44;99354.38;5061211;28;20033;-60
2022/02/12 07:20:20;;;;;;;4.72;2.70;;;;;;;2.05;70.54;99363.69;5061515;28;20082;-60
2022/02/12 07:22:46;;;;;;;7.60;2.40;;;;;;;2.28;69.75;99360.47;5061439;28;20017;-59
2022/02/12 07:25:13;;;;;;;8.02;2.75;;;;;;;2.14;69.00;99370.56;5059137;28;20209;-59
2022/02/12 07:27:39;;;;;;;5.30;2.30;;;;;;;2.16;68.22;99374.84;5054681;28;20021;-59
2022/02/12 07:30:10;;;;;;;5.78;1.98;;;;;;;2.01;68.87;99372.16;5050592;28;20021;-61
2022/02/12 07:32:37;;;;;;;7.00;2.10;;;;;;;2.09;66.67;99401.19;5061556;28;20075;-60
2022/02/12 07:35:08;;;;;;;3.97;1.40;;;;;;;1.96;66.10;99373.84;5059613;28;20029;-61
2022/02/12 07:37:34;;;;;;;3.80;1.90;;;;;;;2.01;66.22;99364.50;5062131;28;20032;-60
2022/02/12 07:40:00;;;;;;;5.60;1.98;;;;;;;2.16;65.14;99376.56;5061871;28;20217;-59
2022/02/12 07:42:26;;;;;;;3.17;1.63;;;;;;;2.52;64.29;99381.06;5062072;28;20036;-58
2022/02/12 07:44:52;;;;;;;3.38;1.45;;;;;;;3.28;61.15;99373.75;5061657;28;20033;-59
2022/02/12 07:47:18;;;;;;;3.95;1.80;;;;;;;4.00;58.77;99372.16;5065416;28;20368;-60
2022/02/12 07:49:44;;;;;;;4.90;1.98;;;;;;;3.51;59.37;99383.19;5065638;28;20036;-59
2022/02/12 07:52:09;;;;;;;5.03;1.83;;;;;;;3.75;59.35;99387.50;5062360;28;20341;-59
2022/02/12 07:54:35;;;;;;;4.97;1.60;;;;;;;3.34;59.89;99390.81;5052323;28;20029;-59
2022/02/12 07:57:00;;;;;;;7.18;1.60;;;;;;;3.34;60.61;99401.06;5064443;28;20252;-60
2022/02/12 07:59:26;;;;;;;2.75;1.60;;;;;;;3.06;62.06;99406.06;5065202;28;20051;-59
2022/02/12 08:01:52;;;;;;;3.08;1.52;;;;;;;2.98;61.48;99405.16;5065462;28;20218;-60
2022/02/12 08:04:17;;;;;;;4.28;1.50;;;;;;;2.96;61.17;99402.59;5065211;28;20104;-61
2022/02/12 08:09:27;;;;;;;7.28;4.43;;;;;;;2.39;62.12;99420.16;5063454;28;20040;-60
2022/02/12 08:12:01;;;;;;;7.35;4.20;;;;;;;2.32;62.38;99424.34;5064641;28;20265;-61
2022/02/12 08:14:27;;;;;;;3.42;1.75;;;;;;;2.34;62.40;99443.13;5064742;28;20041;-60
2022/02/12 08:16:53;;;;;;;1.70;1.20;;;;;;;2.11;62.24;99435.28;5064732;28;20027;-60
2022/02/12 08:19:20;;;;;;;5.85;1.45;;;;;;;1.88;63.56;99453.78;5065200;28;20147;-59
2022/02/12 08:21:45;;;;;;;5.18;1.60;;;;;;;1.38;64.18;99464.28;5063681;28;20025;-59
2022/02/12 08:24:11;;;;;;;2.47;1.50;;;;;;;1.36;65.44;99453.22;5064593;28;20244;-60
2022/02/12 08:26:37;;;;;;;3.75;1.40;;;;;;;1.36;65.31;99460.88;5064495;28;20033;-60
2022/02/12 08:29:02;;;;;;;5.25;1.17;;;;;;;1.28;65.71;99463.31;5063319;28;20110;-59
2022/02/12 08:31:30;;;;;;;5.15;1.52;;;;;;;1.33;65.81;99471.03;5063963;28;20025;-61
2022/02/12 08:33:56;;;;;;;5.13;1.80;;;;;;;1.26;66.92;99469.25;5063069;28;20053;-59
2022/02/12 08:36:21;;;;;;;4.82;1.42;;;;;;;1.41;66.39;99466.91;5063696;28;20029;-61
2022/02/12 08:38:47;;;;;;;4.75;1.52;;;;;;;1.28;66.93;99467.56;5064389;28;20040;-59
2022/02/12 08:41:13;;;;;;;3.90;1.77;;;;;;;1.27;66.02;99470.94;5064261;28;20035;-60
2022/02/12 08:43:38;;;;;;;1.70;1.50;;;;;;;1.20;66.77;99481.09;5064481;28;20013;-60
2022/02/12 08:46:04;;;;;;;3.22;1.75;;;;;;;1.23;65.58;99481.94;5064252;28;20220;-60
2022/02/12 08:48:31;;;;;;;6.78;2.00;;;;;;;1.27;65.66;99493.91;5064574;28;20195;-60
2022/02/12 08:50:57;;;;;;;5.10;1.80;;;;;;;1.30;66.95;99493.97;5064602;28;20045;-61
2022/02/12 08:53:23;;;;;;;5.35;2.25;;;;;;;1.53;66.01;99492.53;5063838;28;20029;-60
2022/02/12 08:55:48;;;;;;;3.13;1.92;;;;;;;1.58;65.37;99494.28;5064140;28;20087;-60
2022/02/12 08:58:14;;;;;;;3.88;1.73;;;;;;;1.72;63.95;99493.63;5063137;28;20025;-60
2022/02/12 09:00:40;;;;;;;4.22;1.98;;;;;;;1.90;63.95;99492.09;5063754;28;20313;-58
2022/02/12 09:03:05;;;;;;;7.00;3.00;;;;;;;1.89;64.02;99491.22;5062406;28;20059;-59
2022/02/12 09:05:31;;;;;;;6.47;2.88;;;;;;;1.53;64.70;99495.09;5063603;28;20017;-60
2022/02/12 09:07:56;;;;;;;4.57;2.55;;;;;;;1.66;62.74;99501.19;5063852;28;20029;-59
2022/02/12 09:10:22;;;;;;;5.05;2.38;;;;;;;1.74;62.79;99491.09;5064201;28;20048;-60
2022/02/12 09:12:48;;;;;;;6.22;1.88;;;;;;;2.02;62.14;99501.59;5064013;28;20048;-61
2022/02/12 09:15:13;;;;;;;6.45;2.72;;;;;;;2.08;61.62;99504.19;5063958;28;20060;-61
2022/02/12 09:17:39;;;;;;;5.80;2.78;;;;;;;2.06;62.23;99511.00;5058261;28;20021;-61
2022/02/12 09:20:05;;;;;;;3.10;1.92;;;;;;;2.11;60.94;99505.91;5061178;28;20236;-62
2022/02/12 09:22:31;;;;;;;8.05;2.20;;;;;;;2.21;61.00;99505.19;5063516;28;20040;-60
2022/02/12 09:24:57;;;;;;;3.75;1.60;;;;;;;2.30;60.55;99492.50;5062972;28;20057;-61
2022/02/12 09:27:22;;;;;;;4.00;1.90;;;;;;;2.31;59.97;99503.56;5061083;28;20040;-61
2022/02/12 09:29:49;;;;;;;8.82;4.20;;;;;;;2.12;57.71;99503.38;5063176;28;20076;-61
2022/02/12 09:32:15;;;;;;;6.55;1.95;;;;;;;2.13;56.36;99504.25;5061932;28;20036;-61
2022/02/12 09:34:40;;;;;;;6.63;1.60;;;;;;;2.26;57.80;99511.19;5062992;28;20025;-61
2022/02/12 09:37:06;;;;;;;2.38;1.75;;;;;;;2.27;56.09;99504.38;5058844;28;20084;-61
2022/02/12 09:39:32;;;;;;;3.45;1.80;;;;;;;2.26;56.46;99505.22;5060662;28;20024;-60
2022/02/12 09:41:58;;;;;;;6.88;1.80;;;;;;;2.17;58.53;99506.00;5062449;28;20032;-60
2022/02/12 09:44:24;;;;;;;5.22;1.90;;;;;;;2.00;58.00;99505.84;5061881;28;20032;-61
2022/02/12 09:47:08;;;;;;;3.97;1.65;;;;;;;2.14;57.78;99511.94;5061397;28;20025;-62
2022/02/12 09:49:34;;;;;;;3.25;1.73;;;;;;;2.21;59.29;99512.84;5061252;28;20020;-61
2022/02/12 09:52:02;;;;;;;3.97;1.63;;;;;;;2.09;57.91;99523.78;5060339;28;20036;-62
2022/02/12 09:54:29;;;;;;;4.88;1.45;;;;;;;2.02;57.19;99527.13;5059091;28;20068;-61
2022/02/12 09:56:55;;;;;;;2.25;1.10;;;;;;;1.68;55.50;99519.06;5061203;28;20033;-61
2022/02/12 09:59:20;;;;;;;2.35;1.30;;;;;;;1.92;55.69;99515.94;5060114;28;21233;-60
2022/02/12 10:01:46;;;;;;;5.95;1.77;;;;;;;2.05;54.97;99532.25;5060180;28;20036;-61
2022/02/12 10:04:16;;;;;;;2.35;1.00;;;;;;;2.06;53.21;99539.09;5057751;28;20029;-62
2022/02/12 10:06:44;;;;;;;7.47;1.85;;;;;;;1.87;52.25;99532.94;5060168;28;20040;-61
2022/02/12 10:09:11;;;;;;;2.65;1.50;;;;;;;1.96;52.23;99524.50;5059950;28;20029;-62
2022/02/12 10:11:40;;;;;;;3.10;1.58;;;;;;;1.75;53.46;99499.59;5060354;28;20024;-60
2022/02/12 10:14:20;;;;;;;5.32;2.00;;;;;;;1.93;52.28;99524.47;5059941;28;20334;-60
2022/02/12 10:17:02;;;;;;;3.90;1.48;;;;;;;1.89;50.82;99557.63;5059258;28;20033;-62
2022/02/12 10:19:32;;;;;;;;;;;;;;;1.73;51.38;99555.75;5057169;28;20017;-61
2022/02/12 10:22:15;;;;;;;3.38;2.08;;;;;;;2.17;51.30;99540.06;5060016;28;19984;-59
2022/02/12 10:24:53;;;;;;;3.15;1.25;;;;;;;2.18;50.17;99539.22;5060832;28;20025;-59
2022/02/12 10:27:21;;;;;;;2.78;1.13;;;;;;;2.13;51.38;99534.91;5059536;28;20334;-59
2022/02/12 10:29:47;;;;;;;3.70;1.42;;;;;;;2.16;52.68;99535.78;5060865;28;20024;-62
2022/02/12 10:32:18;;;;;;;3.78;1.30;;;;;;;1.86;50.52;99542.28;5060349;28;20031;-61
2022/02/12 10:34:45;;;;;;;3.33;1.13;;;;;;;1.68;49.88;99559.91;5060844;28;20055;-61
2022/02/12 10:37:16;;;;;;;2.45;1.17;;;;;;;1.26;49.30;99487.13;5058370;28;20100;-60
2022/02/12 10:39:58;;;;;;;3.38;1.45;;;;;;;1.73;49.57;99550.63;5058011;28;20119;-60
2022/02/12 10:42:27;;;;;;;1.50;1.00;;;;;;;1.81;50.75;99543.94;5060765;28;20096;-60
2022/02/12 10:44:53;;;;;;;2.60;1.30;;;;;;;1.87;49.59;99554.22;5059761;28;20020;-59
2022/02/12 10:47:19;;;;;;;5.43;1.30;;;;;;;1.87;50.42;99561.88;5059877;28;20354;-61
2022/02/12 10:49:45;;;;;;;2.00;1.40;;;;;;;1.83;50.45;99552.44;5059404;28;20033;-61
2022/02/12 10:52:11;;;;;;;3.45;1.15;;;;;;;1.91;51.38;99552.56;5057425;28;20033;-59
2022/02/12 10:54:42;;;;;;;4.50;1.25;;;;;;;1.63;50.85;99496.06;5056749;28;20078;-61
2022/02/12 10:57:08;;;;;;;6.32;1.60;;;;;;;1.98;48.14;99553.47;5054569;28;20188;-61
2022/02/12 10:59:36;;;;;;;3.88;1.25;;;;;;;2.11;50.97;99546.78;5056954;28;20044;-59
2022/02/12 11:02:07;;;;;;;2.42;1.25;;;;;;;1.88;49.62;99565.25;5057302;28;20079;-60
2022/02/12 11:04:35;;;;;;;4.85;1.63;;;;;;;2.15;49.92;99535.75;5057348;28;20029;-59
2022/02/12 11:07:02;;;;;;;4.38;1.60;;;;;;;2.00;49.03;99554.34;5055662;28;20021;-59
2022/02/12 11:09:33;;;;;;;8.35;2.00;;;;;;;1.84;48.07;99490.34;5054860;28;20024;-59
2022/02/12 11:12:04;;;;;;;2.22;1.20;;;;;;;2.09;50.55;99498.25;5059077;28;20033;-60
2022/02/12 11:14:35;;;;;;;1.85;1.00;;;;;;;2.57;49.43;99549.81;5059855;28;20128;-60
2022/02/12 11:17:08;;;;;;;3.20;1.38;;;;;;;2.67;48.50;99556.69;5058217;28;20035;-60
2022/02/12 11:19:35;;;;;;;3.08;1.10;;;;;;;2.68;49.08;99555.00;5061063;28;20055;-59
2022/02/12 11:22:02;;;;;;;3.50;1.40;;;;;;;2.72;49.24;99560.16;5064666;28;20085;-62
2022/02/12 11:24:38;;;;;;;3.42;1.65;;;;;;;2.62;50.22;99557.50;5064518;28;20252;-60
2022/02/12 11:27:36;;;;;;;2.90;1.42;;;;;;;2.55;49.68;99557.47;5064716;28;20033;-60
2022/02/12 11:30:13;;;;;;;6.00;1.40;;;;;;;2.38;51.04;99569.19;5052619;28;20055;-62
2022/02/12 11:32:43;;;;;;;3.72;1.38;;;;;;;2.25;50.61;99570.78;5064561;28;20070;-61
2022/02/12 11:35:09;;;;;;;2.08;1.02;;;;;;;2.11;49.90;99577.44;5064504;28;20044;-62
2022/02/12 11:37:39;;;;;;;3.55;1.65;;;;;;;2.09;50.37;99574.88;5064431;28;20020;-62
2022/02/12 11:40:08;;;;;;;5.63;1.55;;;;;;;2.04;50.05;99576.53;5064568;28;20029;-61
2022/02/12 11:42:46;;;;;;;3.15;1.40;;;;;;;1.99;53.53;99578.16;5062513;28;20096;-60
2022/02/12 11:45:29;;;;;;;4.00;1.67;;;;;;;2.16;52.23;99580.91;5065227;28;20037;-61
2022/02/12 11:48:13;;;;;;;3.58;1.70;;;;;;;2.09;54.24;99582.53;5064851;28;20025;-61